sensor_id;sensor_type;location;lat;lon;timestamp;P1;durP1;ratioP1;P2;durP2;ratioP2
37169;SDS011;23062;13.952;100.608;2024-02-15T11:04:43;42.69;;;31.44;;
37169;SDS011;23062;13.952;100.608;2024-02-15T11:09:26;46.64;;;34.90;;
37169;SDS011;23062;13.952;100.608;2024-02-15T11:14:27;44.21;;;32.31;;
37169;SDS011;23062;13.952;100.608;2024-02-15T11:19:06;42.81;;;32.72;;
37169;SDS011;23062;13.952;100.608;2024-02-15T11:23:51;37.68;;;30.07;;
37169;SDS011;23062;13.952;100.608;2024-02-15T11:33:32;33.44;;;27.40;;
37169;SDS011;23062;13.952;100.608;2024-02-15T11:38:08;34.33;;;27.88;;
37169;SDS011;23062;13.952;100.608;2024-02-15T11:42:46;33.13;;;26.35;;
37169;SDS011;23062;13.952;100.608;2024-02-15T11:47:39;31.14;;;25.72;;
37169;SDS011;23062;13.952;100.608;2024-02-15T11:52:21;30.00;;;25.18;;
37169;SDS011;23062;13.952;100.608;2024-02-15T11:57:04;31.95;;;25.58;;
37169;SDS011;23062;13.952;100.608;2024-02-15T12:01:59;31.20;;;25.13;;
37169;SDS011;23062;13.952;100.608;2024-02-15T12:07:01;30.77;;;24.07;;
37169;SDS011;23062;13.952;100.608;2024-02-15T12:12:02;28.24;;;23.52;;
37169;SDS011;23062;13.952;100.608;2024-02-15T12:17:05;27.08;;;22.82;;
37169;SDS011;23062;13.952;100.608;2024-02-15T12:22:05;29.63;;;24.86;;
37169;SDS011;23062;13.952;100.608;2024-02-15T12:26:46;28.29;;;22.84;;
37169;SDS011;23062;13.952;100.608;2024-02-15T12:31:35;27.88;;;23.32;;
37169;SDS011;23062;13.952;100.608;2024-02-15T12:36:27;26.73;;;22.19;;
37169;SDS011;23062;13.952;100.608;2024-02-15T12:41:18;28.27;;;23.79;;
37169;SDS011;23062;13.952;100.608;2024-02-15T12:45:55;26.46;;;22.56;;
37169;SDS011;23062;13.952;100.608;2024-02-15T12:50:42;25.96;;;21.33;;
37169;SDS011;23062;13.952;100.608;2024-02-15T12:55:29;29.02;;;21.99;;
37169;SDS011;23062;13.952;100.608;2024-02-15T13:00:19;27.68;;;22.01;;
37169;SDS011;23062;13.952;100.608;2024-02-15T13:05:05;26.84;;;21.81;;
37169;SDS011;23062;13.952;100.608;2024-02-15T13:09:44;24.31;;;19.44;;
37169;SDS011;23062;13.952;100.608;2024-02-15T13:14:21;25.71;;;20.30;;
37169;SDS011;23062;13.952;100.608;2024-02-15T13:19:09;25.50;;;19.77;;
37169;SDS011;23062;13.952;100.608;2024-02-15T13:23:52;22.60;;;18.55;;
37169;SDS011;23062;13.952;100.608;2024-02-15T13:28:39;21.62;;;18.05;;
37169;SDS011;23062;13.952;100.608;2024-02-15T13:33:32;20.64;;;17.07;;
37169;SDS011;23062;13.952;100.608;2024-02-15T13:38:18;18.30;;;16.80;;
37169;SDS011;23062;13.952;100.608;2024-02-15T13:43:08;17.82;;;16.22;;
37169;SDS011;23062;13.952;100.608;2024-02-15T13:47:51;20.20;;;17.80;;
37169;SDS011;23062;13.952;100.608;2024-02-15T13:52:33;16.74;;;14.95;;
37169;SDS011;23062;13.952;100.608;2024-02-15T13:57:20;16.75;;;14.39;;
37169;SDS011;23062;13.952;100.608;2024-02-15T14:02:04;17.81;;;15.29;;
37169;SDS011;23062;13.952;100.608;2024-02-15T14:06:47;17.34;;;15.73;;
37169;SDS011;23062;13.952;100.608;2024-02-15T14:11:28;15.94;;;14.29;;
37169;SDS011;23062;13.952;100.608;2024-02-15T14:16:14;15.49;;;13.91;;
37169;SDS011;23062;13.952;100.608;2024-02-15T14:21:01;16.59;;;14.72;;
37169;SDS011;23062;13.952;100.608;2024-02-15T14:25:41;14.06;;;12.89;;
37169;SDS011;23062;13.952;100.608;2024-02-15T14:30:18;17.58;;;15.70;;
37169;SDS011;23062;13.952;100.608;2024-02-15T14:35:23;16.88;;;14.79;;
37169;SDS011;23062;13.952;100.608;2024-02-15T14:40:13;16.32;;;14.38;;
37169;SDS011;23062;13.952;100.608;2024-02-15T14:45:00;14.66;;;13.80;;
37169;SDS011;23062;13.952;100.608;2024-02-15T14:49:47;14.62;;;12.87;;
37169;SDS011;23062;13.952;100.608;2024-02-15T14:54:32;13.25;;;12.19;;
37169;SDS011;23062;13.952;100.608;2024-02-15T14:59:14;14.66;;;14.44;;
37169;SDS011;23062;13.952;100.608;2024-02-15T15:04:01;13.21;;;12.18;;
37169;SDS011;23062;13.952;100.608;2024-02-15T15:08:45;13.76;;;13.58;;
37169;SDS011;23062;13.952;100.608;2024-02-15T15:13:46;13.67;;;12.57;;
37169;SDS011;23062;13.952;100.608;2024-02-15T15:18:30;11.59;;;11.96;;
37169;SDS011;23062;13.952;100.608;2024-02-15T15:23:15;12.65;;;12.42;;
37169;SDS011;23062;13.952;100.608;2024-02-15T15:28:02;11.46;;;11.48;;
37169;SDS011;23062;13.952;100.608;2024-02-15T15:32:47;9.92;;;10.54;;
37169;SDS011;23062;13.952;100.608;2024-02-15T15:37:34;10.59;;;10.62;;
37169;SDS011;23062;13.952;100.608;2024-02-15T15:42:19;11.32;;;11.09;;
37169;SDS011;23062;13.952;100.608;2024-02-15T15:47:06;11.72;;;11.83;;
37169;SDS011;23062;13.952;100.608;2024-02-15T15:51:50;10.85;;;11.77;;
37169;SDS011;23062;13.952;100.608;2024-02-15T15:56:34;10.05;;;11.30;;
37169;SDS011;23062;13.952;100.608;2024-02-15T16:01:19;10.93;;;10.92;;
37169;SDS011;23062;13.952;100.608;2024-02-15T16:06:10;10.26;;;11.27;;
37169;SDS011;23062;13.952;100.608;2024-02-15T16:10:55;11.03;;;11.68;;
37169;SDS011;23062;13.952;100.608;2024-02-15T16:15:33;9.17;;;10.29;;
37169;SDS011;23062;13.952;100.608;2024-02-15T16:20:18;8.44;;;9.82;;
37169;SDS011;23062;13.952;100.608;2024-02-15T16:29:58;7.92;;;9.76;;
37169;SDS011;23062;13.952;100.608;2024-02-15T16:34:42;9.65;;;10.76;;
37169;SDS011;23062;13.952;100.608;2024-02-15T16:39:18;8.67;;;9.45;;
37169;SDS011;23062;13.952;100.608;2024-02-15T16:44:03;8.84;;;10.99;;
37169;SDS011;23062;13.952;100.608;2024-02-15T16:48:48;8.00;;;9.29;;
37169;SDS011;23062;13.952;100.608;2024-02-15T16:53:31;8.53;;;10.14;;
37169;SDS011;23062;13.952;100.608;2024-02-15T16:58:16;8.18;;;10.12;;
37169;SDS011;23062;13.952;100.608;2024-02-15T17:03:02;8.79;;;10.27;;
37169;SDS011;23062;13.952;100.608;2024-02-15T17:07:50;8.03;;;9.36;;
37169;SDS011;23062;13.952;100.608;2024-02-15T17:12:35;6.72;;;7.83;;
37169;SDS011;23062;13.952;100.608;2024-02-15T17:17:19;7.33;;;8.84;;
37169;SDS011;23062;13.952;100.608;2024-02-15T17:21:54;6.97;;;8.39;;
37169;SDS011;23062;13.952;100.608;2024-02-15T17:26:43;7.73;;;8.51;;
37169;SDS011;23062;13.952;100.608;2024-02-15T17:31:28;7.33;;;8.48;;
37169;SDS011;23062;13.952;100.608;2024-02-15T17:36:10;7.65;;;9.27;;
37169;SDS011;23062;13.952;100.608;2024-02-15T17:40:48;7.18;;;8.87;;
37169;SDS011;23062;13.952;100.608;2024-02-15T17:45:31;6.53;;;7.64;;
37169;SDS011;23062;13.952;100.608;2024-02-15T17:50:10;6.60;;;8.01;;
37169;SDS011;23062;13.952;100.608;2024-02-15T17:54:59;7.76;;;8.88;;
37169;SDS011;23062;13.952;100.608;2024-02-15T17:59:46;7.03;;;8.47;;
37169;SDS011;23062;13.952;100.608;2024-02-15T18:04:29;6.79;;;7.63;;
37169;SDS011;23062;13.952;100.608;2024-02-15T18:09:12;6.59;;;8.01;;
37169;SDS011;23062;13.952;100.608;2024-02-15T18:13:56;6.67;;;8.03;;
37169;SDS011;23062;13.952;100.608;2024-02-15T18:18:41;5.94;;;7.20;;
37169;SDS011;23062;13.952;100.608;2024-02-15T18:23:17;6.73;;;7.62;;
37169;SDS011;23062;13.952;100.608;2024-02-15T18:28:04;7.92;;;8.91;;
37169;SDS011;23062;13.952;100.608;2024-02-15T18:32:47;7.46;;;8.08;;
37169;SDS011;23062;13.952;100.608;2024-02-15T18:37:33;7.25;;;8.10;;
37169;SDS011;23062;13.952;100.608;2024-02-15T18:42:11;6.80;;;7.70;;
37169;SDS011;23062;13.952;100.608;2024-02-15T18:46:58;8.10;;;8.95;;
37169;SDS011;23062;13.952;100.608;2024-02-15T18:51:43;6.66;;;8.02;;
37169;SDS011;23062;13.952;100.608;2024-02-15T18:56:26;8.46;;;9.34;;
37169;SDS011;23062;13.952;100.608;2024-02-15T19:01:08;7.28;;;7.74;;
37169;SDS011;23062;13.952;100.608;2024-02-15T19:05:52;7.07;;;8.12;;
37169;SDS011;23062;13.952;100.608;2024-02-15T19:10:37;6.30;;;7.58;;
37169;SDS011;23062;13.952;100.608;2024-02-15T19:15:21;6.55;;;8.00;;
37169;SDS011;23062;13.952;100.608;2024-02-15T19:19:59;7.08;;;8.84;;
37169;SDS011;23062;13.952;100.608;2024-02-15T19:24:43;5.38;;;6.71;;
37169;SDS011;23062;13.952;100.608;2024-02-15T19:29:26;6.00;;;7.15;;
37169;SDS011;23062;13.952;100.608;2024-02-15T19:34:04;5.85;;;7.53;;
37169;SDS011;23062;13.952;100.608;2024-02-15T19:43:27;5.76;;;7.09;;
37169;SDS011;23062;13.952;100.608;2024-02-15T19:48:10;5.18;;;6.24;;
37169;SDS011;23062;13.952;100.608;2024-02-15T19:52:56;5.60;;;7.12;;
37169;SDS011;23062;13.952;100.608;2024-02-15T19:57:40;5.01;;;6.61;;
37169;SDS011;23062;13.952;100.608;2024-02-15T20:02:26;5.12;;;6.59;;
37169;SDS011;23062;13.952;100.608;2024-02-15T20:07:09;6.26;;;8.28;;
37169;SDS011;23062;13.952;100.608;2024-02-15T20:11:54;4.95;;;6.90;;
37169;SDS011;23062;13.952;100.608;2024-02-15T20:16:39;4.46;;;6.48;;
37169;SDS011;23062;13.952;100.608;2024-02-15T20:21:24;3.74;;;5.96;;
37169;SDS011;23062;13.952;100.608;2024-02-15T20:26:02;3.74;;;6.31;;
37169;SDS011;23062;13.952;100.608;2024-02-15T20:30:45;3.46;;;6.24;;
37169;SDS011;23062;13.952;100.608;2024-02-15T20:35:24;3.21;;;5.87;;
37169;SDS011;23062;13.952;100.608;2024-02-15T20:40:06;4.06;;;8.10;;
37169;SDS011;23062;13.952;100.608;2024-02-15T20:44:46;3.65;;;6.95;;
37169;SDS011;23062;13.952;100.608;2024-02-15T20:49:23;3.61;;;7.32;;
37169;SDS011;23062;13.952;100.608;2024-02-15T20:54:08;4.19;;;8.06;;
37169;SDS011;23062;13.952;100.608;2024-02-15T20:58:58;3.96;;;8.70;;
37169;SDS011;23062;13.952;100.608;2024-02-15T21:03:41;2.79;;;6.74;;
37169;SDS011;23062;13.952;100.608;2024-02-15T21:08:30;2.51;;;6.33;;
37169;SDS011;23062;13.952;100.608;2024-02-15T21:13:19;2.70;;;6.70;;
37169;SDS011;23062;13.952;100.608;2024-02-15T21:18:04;2.34;;;5.97;;
37169;SDS011;23062;13.952;100.608;2024-02-15T21:22:48;2.05;;;5.22;;
37169;SDS011;23062;13.952;100.608;2024-02-15T21:27:36;2.72;;;6.73;;
37169;SDS011;23062;13.952;100.608;2024-02-15T21:32:19;2.39;;;6.33;;
37169;SDS011;23062;13.952;100.608;2024-02-15T21:37:03;2.33;;;5.94;;
37169;SDS011;23062;13.952;100.608;2024-02-15T21:41:44;2.77;;;7.09;;
37169;SDS011;23062;13.952;100.608;2024-02-15T21:46:30;2.59;;;7.04;;
37169;SDS011;23062;13.952;100.608;2024-02-15T21:51:12;2.43;;;6.31;;
37169;SDS011;23062;13.952;100.608;2024-02-15T21:55:49;2.13;;;5.23;;
37169;SDS011;23062;13.952;100.608;2024-02-15T22:00:29;2.44;;;6.34;;
37169;SDS011;23062;13.952;100.608;2024-02-15T22:05:06;2.47;;;5.98;;
37169;SDS011;23062;13.952;100.608;2024-02-15T22:09:45;2.31;;;6.65;;
37169;SDS011;23062;13.952;100.608;2024-02-15T22:14:23;2.07;;;6.59;;
37169;SDS011;23062;13.952;100.608;2024-02-15T22:19:11;1.98;;;6.21;;
37169;SDS011;23062;13.952;100.608;2024-02-15T22:23:52;2.01;;;6.58;;
37169;SDS011;23062;13.952;100.608;2024-02-15T22:28:37;nan;;;nan;;
37169;SDS011;23062;13.952;100.608;2024-02-15T22:33:23;2.28;;;7.27;;
37169;SDS011;23062;13.952;100.608;2024-02-15T22:37:59;2.43;;;7.65;;
37169;SDS011;23062;13.952;100.608;2024-02-15T22:42:43;2.22;;;7.28;;
37169;SDS011;23062;13.952;100.608;2024-02-15T22:47:27;1.94;;;6.89;;
37169;SDS011;23062;13.952;100.608;2024-02-15T22:52:05;2.56;;;7.36;;
37169;SDS011;23062;13.952;100.608;2024-02-15T22:56:45;2.83;;;7.40;;
37169;SDS011;23062;13.952;100.608;2024-02-15T23:01:21;2.64;;;6.71;;
37169;SDS011;23062;13.952;100.608;2024-02-15T23:05:56;2.27;;;5.95;;
37169;SDS011;23062;13.952;100.608;2024-02-15T23:10:36;2.47;;;6.35;;
37169;SDS011;23062;13.952;100.608;2024-02-15T23:15:20;2.86;;;7.08;;
37169;SDS011;23062;13.952;100.608;2024-02-15T23:20:04;2.70;;;7.07;;
37169;SDS011;23062;13.952;100.608;2024-02-15T23:24:49;2.49;;;6.70;;
37169;SDS011;23062;13.952;100.608;2024-02-15T23:29:35;2.96;;;7.08;;
37169;SDS011;23062;13.952;100.608;2024-02-15T23:34:13;2.37;;;7.01;;
37169;SDS011;23062;13.952;100.608;2024-02-15T23:38:56;3.33;;;8.55;;
37169;SDS011;23062;13.952;100.608;2024-02-15T23:44:00;2.86;;;8.12;;
37169;SDS011;23062;13.952;100.608;2024-02-15T23:48:39;2.92;;;8.80;;
37169;SDS011;23062;13.952;100.608;2024-02-15T23:53:25;2.80;;;8.77;;
37169;SDS011;23062;13.952;100.608;2024-02-15T23:58:01;2.93;;;8.46;;
